sensor_id;sensor_type;location;lat;lon;timestamp;temperature;humidity
81951;DHT22;71452;52.562;5.642;2024-03-02T00:01:31;9.60;63.00
81951;DHT22;71452;52.562;5.642;2024-03-02T00:04:01;9.60;63.10
81951;DHT22;71452;52.562;5.642;2024-03-02T00:06:35;9.60;63.00
81951;DHT22;71452;52.562;5.642;2024-03-02T00:09:04;9.70;62.80
81951;DHT22;71452;52.562;5.642;2024-03-02T00:11:35;9.70;62.80
81951;DHT22;71452;52.562;5.642;2024-03-02T00:14:05;9.70;62.90
81951;DHT22;71452;52.562;5.642;2024-03-02T00:16:34;9.70;63.10
81951;DHT22;71452;52.562;5.642;2024-03-02T00:19:04;9.70;62.90
81951;DHT22;71452;52.562;5.642;2024-03-02T00:21:36;9.80;62.90
81951;DHT22;71452;52.562;5.642;2024-03-02T00:24:18;9.80;62.90
81951;DHT22;71452;52.562;5.642;2024-03-02T00:26:49;9.80;63.00
81951;DHT22;71452;52.562;5.642;2024-03-02T00:29:18;9.80;62.90
81951;DHT22;71452;52.562;5.642;2024-03-02T00:31:48;9.80;62.90
81951;DHT22;71452;52.562;5.642;2024-03-02T00:34:18;9.80;63.00
81951;DHT22;71452;52.562;5.642;2024-03-02T00:36:50;9.80;62.80
81951;DHT22;71452;52.562;5.642;2024-03-02T00:39:19;9.90;63.00
81951;DHT22;71452;52.562;5.642;2024-03-02T00:41:48;9.90;63.00
81951;DHT22;71452;52.562;5.642;2024-03-02T00:44:20;9.90;63.00
81951;DHT22;71452;52.562;5.642;2024-03-02T00:46:58;10.00;63.00
81951;DHT22;71452;52.562;5.642;2024-03-02T00:49:29;10.00;62.90
81951;DHT22;71452;52.562;5.642;2024-03-02T00:52:01;10.00;62.90
81951;DHT22;71452;52.562;5.642;2024-03-02T00:54:30;10.00;62.90
81951;DHT22;71452;52.562;5.642;2024-03-02T00:57:00;10.00;62.80
81951;DHT22;71452;52.562;5.642;2024-03-02T00:59:29;10.00;62.90
81951;DHT22;71452;52.562;5.642;2024-03-02T01:01:58;10.00;62.80
81951;DHT22;71452;52.562;5.642;2024-03-02T01:04:27;10.00;62.90
81951;DHT22;71452;52.562;5.642;2024-03-02T01:06:56;10.00;63.00
81951;DHT22;71452;52.562;5.642;2024-03-02T01:09:28;10.00;63.20
81951;DHT22;71452;52.562;5.642;2024-03-02T01:11:57;10.00;63.20
81951;DHT22;71452;52.562;5.642;2024-03-02T01:14:27;10.00;63.20
81951;DHT22;71452;52.562;5.642;2024-03-02T01:16:56;10.00;63.10
81951;DHT22;71452;52.562;5.642;2024-03-02T01:19:25;10.10;62.90
81951;DHT22;71452;52.562;5.642;2024-03-02T01:21:54;10.00;63.10
81951;DHT22;71452;52.562;5.642;2024-03-02T01:24:23;10.10;63.20
81951;DHT22;71452;52.562;5.642;2024-03-02T01:26:55;10.10;63.00
81951;DHT22;71452;52.562;5.642;2024-03-02T01:29:24;10.10;63.20
81951;DHT22;71452;52.562;5.642;2024-03-02T01:31:53;10.20;63.30
81951;DHT22;71452;52.562;5.642;2024-03-02T01:34:22;10.20;63.60
81951;DHT22;71452;52.562;5.642;2024-03-02T01:36:51;10.20;63.80
81951;DHT22;71452;52.562;5.642;2024-03-02T01:39:20;10.10;64.00
81951;DHT22;71452;52.562;5.642;2024-03-02T01:41:50;10.10;64.20
81951;DHT22;71452;52.562;5.642;2024-03-02T01:44:21;10.10;64.40
81951;DHT22;71452;52.562;5.642;2024-03-02T01:46:50;10.00;64.70
81951;DHT22;71452;52.562;5.642;2024-03-02T01:49:20;10.00;64.80
81951;DHT22;71452;52.562;5.642;2024-03-02T01:51:49;10.00;65.10
81951;DHT22;71452;52.562;5.642;2024-03-02T01:54:18;10.00;65.20
81951;DHT22;71452;52.562;5.642;2024-03-02T01:56:47;9.90;65.30
81951;DHT22;71452;52.562;5.642;2024-03-02T01:59:16;9.80;65.40
81951;DHT22;71452;52.562;5.642;2024-03-02T02:01:49;9.80;65.60
81951;DHT22;71452;52.562;5.642;2024-03-02T02:04:19;9.80;65.50
81951;DHT22;71452;52.562;5.642;2024-03-02T02:06:53;9.80;65.20
81951;DHT22;71452;52.562;5.642;2024-03-02T02:09:22;9.80;65.20
81951;DHT22;71452;52.562;5.642;2024-03-02T02:11:51;9.80;65.10
81951;DHT22;71452;52.562;5.642;2024-03-02T02:14:21;9.70;65.20
81951;DHT22;71452;52.562;5.642;2024-03-02T02:16:52;9.80;65.30
81951;DHT22;71452;52.562;5.642;2024-03-02T02:19:21;9.70;65.30
81951;DHT22;71452;52.562;5.642;2024-03-02T02:21:53;9.70;65.40
81951;DHT22;71452;52.562;5.642;2024-03-02T02:24:22;9.70;65.40
81951;DHT22;71452;52.562;5.642;2024-03-02T02:26:51;9.70;65.50
81951;DHT22;71452;52.562;5.642;2024-03-02T02:29:20;9.60;65.50
81951;DHT22;71452;52.562;5.642;2024-03-02T02:31:50;9.60;65.60
81951;DHT22;71452;52.562;5.642;2024-03-02T02:34:19;9.60;65.70
81951;DHT22;71452;52.562;5.642;2024-03-02T02:36:48;9.50;65.90
81951;DHT22;71452;52.562;5.642;2024-03-02T02:39:21;9.50;66.00
81951;DHT22;71452;52.562;5.642;2024-03-02T02:41:51;9.40;66.10
81951;DHT22;71452;52.562;5.642;2024-03-02T02:44:20;9.40;66.40
81951;DHT22;71452;52.562;5.642;2024-03-02T02:46:49;9.40;66.40
81951;DHT22;71452;52.562;5.642;2024-03-02T02:49:18;9.40;66.60
81951;DHT22;71452;52.562;5.642;2024-03-02T02:51:47;9.30;66.80
81951;DHT22;71452;52.562;5.642;2024-03-02T02:54:19;9.30;66.90
81951;DHT22;71452;52.562;5.642;2024-03-02T02:56:48;9.20;66.90
81951;DHT22;71452;52.562;5.642;2024-03-02T02:59:17;9.20;67.20
81951;DHT22;71452;52.562;5.642;2024-03-02T03:01:47;9.20;67.30
81951;DHT22;71452;52.562;5.642;2024-03-02T03:04:16;9.20;67.60
81951;DHT22;71452;52.562;5.642;2024-03-02T03:06:45;9.10;67.80
81951;DHT22;71452;52.562;5.642;2024-03-02T03:09:14;9.10;67.90
81951;DHT22;71452;52.562;5.642;2024-03-02T03:11:46;9.00;68.10
81951;DHT22;71452;52.562;5.642;2024-03-02T03:14:15;9.00;68.30
81951;DHT22;71452;52.562;5.642;2024-03-02T03:16:46;9.00;68.50
81951;DHT22;71452;52.562;5.642;2024-03-02T03:19:16;9.00;68.50
81951;DHT22;71452;52.562;5.642;2024-03-02T03:21:45;9.00;68.50
81951;DHT22;71452;52.562;5.642;2024-03-02T03:24:14;9.00;68.70
81951;DHT22;71452;52.562;5.642;2024-03-02T03:26:46;9.00;68.90
81951;DHT22;71452;52.562;5.642;2024-03-02T03:29:15;8.90;69.10
81951;DHT22;71452;52.562;5.642;2024-03-02T03:31:44;8.90;69.20
81951;DHT22;71452;52.562;5.642;2024-03-02T03:34:14;8.90;69.40
81951;DHT22;71452;52.562;5.642;2024-03-02T03:36:43;8.90;69.50
81951;DHT22;71452;52.562;5.642;2024-03-02T03:39:12;8.90;69.70
81951;DHT22;71452;52.562;5.642;2024-03-02T03:41:42;8.80;69.90
81951;DHT22;71452;52.562;5.642;2024-03-02T03:44:13;8.80;70.10
81951;DHT22;71452;52.562;5.642;2024-03-02T03:46:43;8.80;70.30
81951;DHT22;71452;52.562;5.642;2024-03-02T03:49:12;8.70;70.40
81951;DHT22;71452;52.562;5.642;2024-03-02T03:51:41;8.60;70.50
81951;DHT22;71452;52.562;5.642;2024-03-02T03:54:10;8.60;70.50
81951;DHT22;71452;52.562;5.642;2024-03-02T03:56:39;8.60;70.70
81951;DHT22;71452;52.562;5.642;2024-03-02T03:59:08;8.60;70.70
81951;DHT22;71452;52.562;5.642;2024-03-02T04:01:40;8.50;70.60
81951;DHT22;71452;52.562;5.642;2024-03-02T04:04:09;8.50;70.50
81951;DHT22;71452;52.562;5.642;2024-03-02T04:06:38;8.50;70.40
81951;DHT22;71452;52.562;5.642;2024-03-02T04:09:07;8.40;70.50
81951;DHT22;71452;52.562;5.642;2024-03-02T04:11:37;8.40;70.40
81951;DHT22;71452;52.562;5.642;2024-03-02T04:14:06;8.40;70.40
81951;DHT22;71452;52.562;5.642;2024-03-02T04:16:35;8.40;70.30
81951;DHT22;71452;52.562;5.642;2024-03-02T04:19:06;8.40;70.40
81951;DHT22;71452;52.562;5.642;2024-03-02T04:21:36;8.30;70.40
81951;DHT22;71452;52.562;5.642;2024-03-02T04:24:05;8.30;70.50
81951;DHT22;71452;52.562;5.642;2024-03-02T04:26:34;8.30;70.50
81951;DHT22;71452;52.562;5.642;2024-03-02T04:29:03;8.30;70.50
81951;DHT22;71452;52.562;5.642;2024-03-02T04:31:32;8.30;70.40
81951;DHT22;71452;52.562;5.642;2024-03-02T04:34:02;8.30;70.50
81951;DHT22;71452;52.562;5.642;2024-03-02T04:36:33;8.30;70.50
81951;DHT22;71452;52.562;5.642;2024-03-02T04:39:02;8.30;70.50
81951;DHT22;71452;52.562;5.642;2024-03-02T04:41:35;8.30;70.50
81951;DHT22;71452;52.562;5.642;2024-03-02T04:44:05;8.20;70.50
81951;DHT22;71452;52.562;5.642;2024-03-02T04:46:34;8.20;70.50
81951;DHT22;71452;52.562;5.642;2024-03-02T04:49:03;8.20;70.60
81951;DHT22;71452;52.562;5.642;2024-03-02T04:51:35;8.20;70.60
81951;DHT22;71452;52.562;5.642;2024-03-02T04:54:04;8.20;70.70
81951;DHT22;71452;52.562;5.642;2024-03-02T04:56:33;8.20;70.80
81951;DHT22;71452;52.562;5.642;2024-03-02T04:59:10;8.20;70.90
81951;DHT22;71452;52.562;5.642;2024-03-02T05:01:39;8.20;70.80
81951;DHT22;71452;52.562;5.642;2024-03-02T05:04:09;8.20;70.80
81951;DHT22;71452;52.562;5.642;2024-03-02T05:06:41;8.20;71.00
81951;DHT22;71452;52.562;5.642;2024-03-02T05:09:10;8.20;71.00
81951;DHT22;71452;52.562;5.642;2024-03-02T05:11:39;8.20;71.10
81951;DHT22;71452;52.562;5.642;2024-03-02T05:14:21;8.20;71.00
81951;DHT22;71452;52.562;5.642;2024-03-02T05:16:50;8.20;71.00
81951;DHT22;71452;52.562;5.642;2024-03-02T05:19:19;8.30;71.00
81951;DHT22;71452;52.562;5.642;2024-03-02T05:21:51;8.30;70.90
81951;DHT22;71452;52.562;5.642;2024-03-02T05:24:20;8.30;70.80
81951;DHT22;71452;52.562;5.642;2024-03-02T05:26:50;8.20;70.80
81951;DHT22;71452;52.562;5.642;2024-03-02T05:29:19;8.20;70.80
81951;DHT22;71452;52.562;5.642;2024-03-02T05:31:48;8.20;70.90
81951;DHT22;71452;52.562;5.642;2024-03-02T05:34:17;8.20;70.80
81951;DHT22;71452;52.562;5.642;2024-03-02T05:36:46;8.20;70.60
81951;DHT22;71452;52.562;5.642;2024-03-02T05:39:18;8.20;70.70
81951;DHT22;71452;52.562;5.642;2024-03-02T05:41:47;8.20;70.50
81951;DHT22;71452;52.562;5.642;2024-03-02T05:44:16;8.10;70.50
81951;DHT22;71452;52.562;5.642;2024-03-02T05:46:46;8.10;70.50
81951;DHT22;71452;52.562;5.642;2024-03-02T05:49:15;8.10;70.50
81951;DHT22;71452;52.562;5.642;2024-03-02T05:51:44;8.00;70.50
81951;DHT22;71452;52.562;5.642;2024-03-02T05:54:13;8.00;70.50
81951;DHT22;71452;52.562;5.642;2024-03-02T05:56:45;8.00;70.60
81951;DHT22;71452;52.562;5.642;2024-03-02T05:59:14;8.00;70.50
81951;DHT22;71452;52.562;5.642;2024-03-02T06:01:44;8.00;70.50
81951;DHT22;71452;52.562;5.642;2024-03-02T06:04:14;7.90;70.50
81951;DHT22;71452;52.562;5.642;2024-03-02T06:06:43;7.80;70.50
81951;DHT22;71452;52.562;5.642;2024-03-02T06:09:12;7.80;70.50
81951;DHT22;71452;52.562;5.642;2024-03-02T06:11:45;7.80;70.60
81951;DHT22;71452;52.562;5.642;2024-03-02T06:14:14;7.80;70.60
81951;DHT22;71452;52.562;5.642;2024-03-02T06:16:43;7.80;70.60
81951;DHT22;71452;52.562;5.642;2024-03-02T06:19:12;7.70;70.70
81951;DHT22;71452;52.562;5.642;2024-03-02T06:21:41;7.70;70.80
81951;DHT22;71452;52.562;5.642;2024-03-02T06:24:10;7.70;70.80
81951;DHT22;71452;52.562;5.642;2024-03-02T06:26:39;7.70;70.80
81951;DHT22;71452;52.562;5.642;2024-03-02T06:29:11;7.70;70.70
81951;DHT22;71452;52.562;5.642;2024-03-02T06:31:40;7.70;70.70
81951;DHT22;71452;52.562;5.642;2024-03-02T06:34:09;7.70;70.70
81951;DHT22;71452;52.562;5.642;2024-03-02T06:36:39;7.70;70.50
81951;DHT22;71452;52.562;5.642;2024-03-02T06:39:08;7.60;70.50
81951;DHT22;71452;52.562;5.642;2024-03-02T06:41:38;7.60;70.50
81951;DHT22;71452;52.562;5.642;2024-03-02T06:44:11;7.60;70.30
81951;DHT22;71452;52.562;5.642;2024-03-02T06:46:40;7.60;70.10
81951;DHT22;71452;52.562;5.642;2024-03-02T06:49:09;7.60;70.00
81951;DHT22;71452;52.562;5.642;2024-03-02T06:51:38;7.60;69.90
81951;DHT22;71452;52.562;5.642;2024-03-02T06:54:08;7.60;69.80
81951;DHT22;71452;52.562;5.642;2024-03-02T06:56:37;7.60;69.60
81951;DHT22;71452;52.562;5.642;2024-03-02T06:59:06;7.60;69.50
81951;DHT22;71452;52.562;5.642;2024-03-02T07:01:38;7.60;69.20
81951;DHT22;71452;52.562;5.642;2024-03-02T07:04:08;7.60;69.30
81951;DHT22;71452;52.562;5.642;2024-03-02T07:06:37;7.60;69.30
81951;DHT22;71452;52.562;5.642;2024-03-02T07:09:06;7.80;69.10
81951;DHT22;71452;52.562;5.642;2024-03-02T07:11:37;7.80;68.90
81951;DHT22;71452;52.562;5.642;2024-03-02T07:14:06;7.90;69.00
81951;DHT22;71452;52.562;5.642;2024-03-02T07:16:40;8.00;69.00
81951;DHT22;71452;52.562;5.642;2024-03-02T07:19:09;8.10;69.10
81951;DHT22;71452;52.562;5.642;2024-03-02T07:21:38;8.50;68.80
81951;DHT22;71452;52.562;5.642;2024-03-02T07:24:08;8.90;68.30
81951;DHT22;71452;52.562;5.642;2024-03-02T07:26:39;9.20;67.80
81951;DHT22;71452;52.562;5.642;2024-03-02T07:29:09;9.50;67.00
81951;DHT22;71452;52.562;5.642;2024-03-02T07:31:41;9.70;66.40
81951;DHT22;71452;52.562;5.642;2024-03-02T07:34:10;10.00;66.50
81951;DHT22;71452;52.562;5.642;2024-03-02T07:36:39;10.20;66.50
81951;DHT22;71452;52.562;5.642;2024-03-02T07:39:09;10.60;65.60
81951;DHT22;71452;52.562;5.642;2024-03-02T07:41:38;10.80;64.60
81951;DHT22;71452;52.562;5.642;2024-03-02T07:44:07;11.00;64.10
81951;DHT22;71452;52.562;5.642;2024-03-02T07:46:43;11.10;63.40
81951;DHT22;71452;52.562;5.642;2024-03-02T07:49:13;11.20;62.20
81951;DHT22;71452;52.562;5.642;2024-03-02T07:51:42;11.00;62.70
81951;DHT22;71452;52.562;5.642;2024-03-02T07:54:11;11.00;62.80
81951;DHT22;71452;52.562;5.642;2024-03-02T07:56:40;11.10;62.50
81951;DHT22;71452;52.562;5.642;2024-03-02T07:59:09;11.40;62.30
81951;DHT22;71452;52.562;5.642;2024-03-02T08:01:39;11.60;61.70
81951;DHT22;71452;52.562;5.642;2024-03-02T08:04:10;11.80;61.40
81951;DHT22;71452;52.562;5.642;2024-03-02T08:06:41;12.00;61.40
81951;DHT22;71452;52.562;5.642;2024-03-02T08:09:18;12.40;60.30
81951;DHT22;71452;52.562;5.642;2024-03-02T08:11:47;12.50;59.60
81951;DHT22;71452;52.562;5.642;2024-03-02T08:14:16;12.60;59.40
81951;DHT22;71452;52.562;5.642;2024-03-02T08:16:46;12.80;58.90
81951;DHT22;71452;52.562;5.642;2024-03-02T08:19:17;12.80;58.60
81951;DHT22;71452;52.562;5.642;2024-03-02T08:21:47;12.80;58.20
81951;DHT22;71452;52.562;5.642;2024-03-02T08:24:16;12.90;57.80
81951;DHT22;71452;52.562;5.642;2024-03-02T08:26:45;13.00;57.50
81951;DHT22;71452;52.562;5.642;2024-03-02T08:29:14;13.00;57.80
81951;DHT22;71452;52.562;5.642;2024-03-02T08:31:43;13.00;57.60
81951;DHT22;71452;52.562;5.642;2024-03-02T08:34:12;12.80;57.70
81951;DHT22;71452;52.562;5.642;2024-03-02T08:36:44;12.60;57.90
81951;DHT22;71452;52.562;5.642;2024-03-02T08:39:15;12.40;58.30
81951;DHT22;71452;52.562;5.642;2024-03-02T08:41:46;12.00;58.80
81951;DHT22;71452;52.562;5.642;2024-03-02T08:44:16;11.60;59.80
81951;DHT22;71452;52.562;5.642;2024-03-02T08:46:46;11.30;60.60
81951;DHT22;71452;52.562;5.642;2024-03-02T08:49:15;11.10;61.00
81951;DHT22;71452;52.562;5.642;2024-03-02T08:51:47;10.90;61.50
81951;DHT22;71452;52.562;5.642;2024-03-02T08:54:20;10.90;61.80
81951;DHT22;71452;52.562;5.642;2024-03-02T08:56:50;10.80;61.70
81951;DHT22;71452;52.562;5.642;2024-03-02T08:59:19;10.70;62.10
81951;DHT22;71452;52.562;5.642;2024-03-02T09:01:48;10.70;62.20
81951;DHT22;71452;52.562;5.642;2024-03-02T09:04:17;10.70;62.50
81951;DHT22;71452;52.562;5.642;2024-03-02T09:06:49;10.70;62.50
81951;DHT22;71452;52.562;5.642;2024-03-02T09:09:19;10.60;62.70
81951;DHT22;71452;52.562;5.642;2024-03-02T09:11:48;10.60;62.50
81951;DHT22;71452;52.562;5.642;2024-03-02T09:14:17;10.60;62.90
81951;DHT22;71452;52.562;5.642;2024-03-02T09:16:46;10.70;62.90
81951;DHT22;71452;52.562;5.642;2024-03-02T09:19:16;10.80;62.60
81951;DHT22;71452;52.562;5.642;2024-03-02T09:21:45;10.80;62.40
81951;DHT22;71452;52.562;5.642;2024-03-02T09:24:17;10.80;62.20
81951;DHT22;71452;52.562;5.642;2024-03-02T09:26:46;10.80;62.20
81951;DHT22;71452;52.562;5.642;2024-03-02T09:29:16;10.80;62.20
81951;DHT22;71452;52.562;5.642;2024-03-02T09:31:46;10.80;62.00
81951;DHT22;71452;52.562;5.642;2024-03-02T09:34:17;10.80;62.40
81951;DHT22;71452;52.562;5.642;2024-03-02T09:36:46;10.90;62.20
81951;DHT22;71452;52.562;5.642;2024-03-02T09:39:17;10.90;62.20
81951;DHT22;71452;52.562;5.642;2024-03-02T09:41:48;11.00;61.40
81951;DHT22;71452;52.562;5.642;2024-03-02T09:44:17;11.00;61.40
81951;DHT22;71452;52.562;5.642;2024-03-02T09:46:49;11.10;61.50
81951;DHT22;71452;52.562;5.642;2024-03-02T09:49:18;11.10;61.40
81951;DHT22;71452;52.562;5.642;2024-03-02T09:51:48;11.10;60.50
81951;DHT22;71452;52.562;5.642;2024-03-02T09:54:20;11.20;60.00
81951;DHT22;71452;52.562;5.642;2024-03-02T09:56:49;11.30;60.40
81951;DHT22;71452;52.562;5.642;2024-03-02T09:59:19;11.30;60.50
81951;DHT22;71452;52.562;5.642;2024-03-02T10:01:58;11.30;59.70
81951;DHT22;71452;52.562;5.642;2024-03-02T10:04:28;11.30;59.50
81951;DHT22;71452;52.562;5.642;2024-03-02T10:07:14;11.30;59.40
81951;DHT22;71452;52.562;5.642;2024-03-02T10:09:48;11.40;59.50
81951;DHT22;71452;52.562;5.642;2024-03-02T10:12:18;11.40;59.50
81951;DHT22;71452;52.562;5.642;2024-03-02T10:14:48;11.40;59.30
81951;DHT22;71452;52.562;5.642;2024-03-02T10:17:18;11.40;59.50
81951;DHT22;71452;52.562;5.642;2024-03-02T10:19:48;11.40;59.60
81951;DHT22;71452;52.562;5.642;2024-03-02T10:22:17;11.50;59.20
81951;DHT22;71452;52.562;5.642;2024-03-02T10:24:48;11.50;59.10
81951;DHT22;71452;52.562;5.642;2024-03-02T10:27:23;11.50;58.50
81951;DHT22;71452;52.562;5.642;2024-03-02T10:29:56;11.50;58.70
81951;DHT22;71452;52.562;5.642;2024-03-02T10:32:25;11.60;58.60
81951;DHT22;71452;52.562;5.642;2024-03-02T10:34:56;11.60;58.90
81951;DHT22;71452;52.562;5.642;2024-03-02T10:37:26;11.70;59.10
81951;DHT22;71452;52.562;5.642;2024-03-02T10:40:04;11.70;58.40
81951;DHT22;71452;52.562;5.642;2024-03-02T10:42:35;11.80;57.80
81951;DHT22;71452;52.562;5.642;2024-03-02T10:45:06;11.80;58.30
81951;DHT22;71452;52.562;5.642;2024-03-02T10:47:38;11.90;58.40
81951;DHT22;71452;52.562;5.642;2024-03-02T10:50:08;12.00;58.00
81951;DHT22;71452;52.562;5.642;2024-03-02T10:52:37;12.00;57.20
81951;DHT22;71452;52.562;5.642;2024-03-02T10:55:11;12.00;57.20
81951;DHT22;71452;52.562;5.642;2024-03-02T10:57:45;12.00;57.20
81951;DHT22;71452;52.562;5.642;2024-03-02T11:00:20;12.00;55.80
81951;DHT22;71452;52.562;5.642;2024-03-02T11:02:55;12.00;55.50
81951;DHT22;71452;52.562;5.642;2024-03-02T11:05:28;12.00;55.90
81951;DHT22;71452;52.562;5.642;2024-03-02T11:08:00;12.10;55.70
81951;DHT22;71452;52.562;5.642;2024-03-02T11:10:37;12.10;56.00
81951;DHT22;71452;52.562;5.642;2024-03-02T11:13:09;12.10;55.20
81951;DHT22;71452;52.562;5.642;2024-03-02T11:15:40;12.10;55.60
81951;DHT22;71452;52.562;5.642;2024-03-02T11:18:12;12.20;55.80
81951;DHT22;71452;52.562;5.642;2024-03-02T11:20:42;12.30;55.40
81951;DHT22;71452;52.562;5.642;2024-03-02T11:23:12;12.30;55.20
81951;DHT22;71452;52.562;5.642;2024-03-02T11:25:44;12.40;55.20
81951;DHT22;71452;52.562;5.642;2024-03-02T11:28:13;12.50;54.60
81951;DHT22;71452;52.562;5.642;2024-03-02T11:30:52;12.50;54.80
81951;DHT22;71452;52.562;5.642;2024-03-02T11:33:25;12.50;55.40
81951;DHT22;71452;52.562;5.642;2024-03-02T11:35:57;12.60;54.90
81951;DHT22;71452;52.562;5.642;2024-03-02T11:38:31;12.70;54.70
81951;DHT22;71452;52.562;5.642;2024-03-02T11:41:05;12.80;54.80
81951;DHT22;71452;52.562;5.642;2024-03-02T11:43:37;12.90;54.40
81951;DHT22;71452;52.562;5.642;2024-03-02T11:46:08;12.80;53.70
81951;DHT22;71452;52.562;5.642;2024-03-02T11:48:39;12.90;54.00
81951;DHT22;71452;52.562;5.642;2024-03-02T11:51:08;13.00;53.70
81951;DHT22;71452;52.562;5.642;2024-03-02T11:53:39;13.00;53.70
81951;DHT22;71452;52.562;5.642;2024-03-02T11:56:12;13.10;53.80
81951;DHT22;71452;52.562;5.642;2024-03-02T11:58:43;13.10;53.40
81951;DHT22;71452;52.562;5.642;2024-03-02T12:01:13;13.20;52.80
81951;DHT22;71452;52.562;5.642;2024-03-02T12:03:43;13.30;52.60
81951;DHT22;71452;52.562;5.642;2024-03-02T12:06:12;13.10;52.90
81951;DHT22;71452;52.562;5.642;2024-03-02T12:08:42;13.30;53.20
81951;DHT22;71452;52.562;5.642;2024-03-02T12:11:15;13.30;51.80
81951;DHT22;71452;52.562;5.642;2024-03-02T12:13:52;13.30;51.40
81951;DHT22;71452;52.562;5.642;2024-03-02T12:16:24;13.30;51.80
81951;DHT22;71452;52.562;5.642;2024-03-02T12:18:54;13.30;51.60
81951;DHT22;71452;52.562;5.642;2024-03-02T12:21:24;13.30;52.30
81951;DHT22;71452;52.562;5.642;2024-03-02T12:23:53;13.40;52.50
81951;DHT22;71452;52.562;5.642;2024-03-02T12:26:25;13.50;52.70
81951;DHT22;71452;52.562;5.642;2024-03-02T12:28:54;13.50;51.80
81951;DHT22;71452;52.562;5.642;2024-03-02T12:31:23;13.60;51.60
81951;DHT22;71452;52.562;5.642;2024-03-02T12:33:53;13.60;51.20
81951;DHT22;71452;52.562;5.642;2024-03-02T12:36:23;13.70;52.00
81951;DHT22;71452;52.562;5.642;2024-03-02T12:38:53;13.80;50.60
81951;DHT22;71452;52.562;5.642;2024-03-02T12:41:25;13.80;50.50
81951;DHT22;71452;52.562;5.642;2024-03-02T12:43:54;13.90;50.50
81951;DHT22;71452;52.562;5.642;2024-03-02T12:46:24;13.90;50.90
81951;DHT22;71452;52.562;5.642;2024-03-02T12:48:53;13.90;51.10
81951;DHT22;71452;52.562;5.642;2024-03-02T12:51:22;13.90;50.80
81951;DHT22;71452;52.562;5.642;2024-03-02T12:53:55;13.70;50.40
81951;DHT22;71452;52.562;5.642;2024-03-02T12:56:28;13.60;50.30
81951;DHT22;71452;52.562;5.642;2024-03-02T12:58:58;13.50;50.70
81951;DHT22;71452;52.562;5.642;2024-03-02T13:01:27;13.50;50.60
81951;DHT22;71452;52.562;5.642;2024-03-02T13:03:58;13.50;50.10
81951;DHT22;71452;52.562;5.642;2024-03-02T13:06:27;13.50;50.00
81951;DHT22;71452;52.562;5.642;2024-03-02T13:08:57;13.60;50.20
81951;DHT22;71452;52.562;5.642;2024-03-02T13:11:29;13.70;50.10
81951;DHT22;71452;52.562;5.642;2024-03-02T13:14:00;13.90;50.30
81951;DHT22;71452;52.562;5.642;2024-03-02T13:16:30;14.00;49.90
81951;DHT22;71452;52.562;5.642;2024-03-02T13:19:00;14.10;49.20
81951;DHT22;71452;52.562;5.642;2024-03-02T13:21:29;14.20;49.60
81951;DHT22;71452;52.562;5.642;2024-03-02T13:23:58;14.30;49.80
81951;DHT22;71452;52.562;5.642;2024-03-02T13:26:30;14.20;50.70
81951;DHT22;71452;52.562;5.642;2024-03-02T13:28:59;14.10;51.20
81951;DHT22;71452;52.562;5.642;2024-03-02T13:31:28;14.00;51.70
81951;DHT22;71452;52.562;5.642;2024-03-02T13:33:58;14.00;51.90
81951;DHT22;71452;52.562;5.642;2024-03-02T13:36:27;13.90;52.10
81951;DHT22;71452;52.562;5.642;2024-03-02T13:38:56;13.90;51.50
81951;DHT22;71452;52.562;5.642;2024-03-02T13:41:25;13.90;51.80
81951;DHT22;71452;52.562;5.642;2024-03-02T13:43:57;13.90;52.00
81951;DHT22;71452;52.562;5.642;2024-03-02T13:46:27;13.90;52.50
81951;DHT22;71452;52.562;5.642;2024-03-02T13:48:57;13.90;51.70
81951;DHT22;71452;52.562;5.642;2024-03-02T13:51:27;13.90;52.00
81951;DHT22;71452;52.562;5.642;2024-03-02T13:53:58;13.90;51.80
81951;DHT22;71452;52.562;5.642;2024-03-02T13:56:29;13.90;52.30
81951;DHT22;71452;52.562;5.642;2024-03-02T13:59:01;14.00;53.90
81951;DHT22;71452;52.562;5.642;2024-03-02T14:01:31;14.00;53.50
81951;DHT22;71452;52.562;5.642;2024-03-02T14:04:01;14.10;53.70
81951;DHT22;71452;52.562;5.642;2024-03-02T14:06:30;14.10;53.60
81951;DHT22;71452;52.562;5.642;2024-03-02T14:09:00;14.20;54.00
81951;DHT22;71452;52.562;5.642;2024-03-02T14:11:29;14.20;53.30
81951;DHT22;71452;52.562;5.642;2024-03-02T14:14:01;14.10;53.20
81951;DHT22;71452;52.562;5.642;2024-03-02T14:16:30;14.10;53.40
81951;DHT22;71452;52.562;5.642;2024-03-02T14:18:59;14.10;53.20
81951;DHT22;71452;52.562;5.642;2024-03-02T14:21:30;14.20;53.30
81951;DHT22;71452;52.562;5.642;2024-03-02T14:24:02;14.20;53.20
81951;DHT22;71452;52.562;5.642;2024-03-02T14:26:31;14.10;53.40
81951;DHT22;71452;52.562;5.642;2024-03-02T14:29:03;14.10;52.90
81951;DHT22;71452;52.562;5.642;2024-03-02T14:31:32;14.00;53.70
81951;DHT22;71452;52.562;5.642;2024-03-02T14:34:02;14.10;53.20
81951;DHT22;71452;52.562;5.642;2024-03-02T14:36:31;14.00;52.90
81951;DHT22;71452;52.562;5.642;2024-03-02T14:39:00;14.00;53.70
81951;DHT22;71452;52.562;5.642;2024-03-02T14:41:30;14.10;53.70
81951;DHT22;71452;52.562;5.642;2024-03-02T14:43:59;14.20;53.20
81951;DHT22;71452;52.562;5.642;2024-03-02T14:46:31;14.10;53.20
81951;DHT22;71452;52.562;5.642;2024-03-02T14:49:01;14.00;53.50
81951;DHT22;71452;52.562;5.642;2024-03-02T14:51:30;13.90;53.60
81951;DHT22;71452;52.562;5.642;2024-03-02T14:53:59;13.90;54.10
81951;DHT22;71452;52.562;5.642;2024-03-02T14:56:29;13.80;53.70
81951;DHT22;71452;52.562;5.642;2024-03-02T14:58:58;13.90;54.00
81951;DHT22;71452;52.562;5.642;2024-03-02T15:01:27;13.90;54.30
81951;DHT22;71452;52.562;5.642;2024-03-02T15:03:59;14.00;53.90
81951;DHT22;71452;52.562;5.642;2024-03-02T15:06:28;14.00;53.90
81951;DHT22;71452;52.562;5.642;2024-03-02T15:08:57;14.10;53.40
81951;DHT22;71452;52.562;5.642;2024-03-02T15:11:28;14.10;53.80
81951;DHT22;71452;52.562;5.642;2024-03-02T15:13:57;14.10;52.10
81951;DHT22;71452;52.562;5.642;2024-03-02T15:16:26;14.10;52.80
81951;DHT22;71452;52.562;5.642;2024-03-02T15:18:55;14.10;52.40
81951;DHT22;71452;52.562;5.642;2024-03-02T15:21:27;14.10;52.60
81951;DHT22;71452;52.562;5.642;2024-03-02T15:23:56;14.10;52.10
81951;DHT22;71452;52.562;5.642;2024-03-02T15:26:25;14.00;52.60
81951;DHT22;71452;52.562;5.642;2024-03-02T15:28:54;14.00;53.50
81951;DHT22;71452;52.562;5.642;2024-03-02T15:31:25;14.00;53.60
81951;DHT22;71452;52.562;5.642;2024-03-02T15:33:54;14.00;53.60
81951;DHT22;71452;52.562;5.642;2024-03-02T15:36:27;14.00;53.30
81951;DHT22;71452;52.562;5.642;2024-03-02T15:38:56;13.90;53.70
81951;DHT22;71452;52.562;5.642;2024-03-02T15:41:26;13.90;53.90
81951;DHT22;71452;52.562;5.642;2024-03-02T15:43:56;13.90;53.40
81951;DHT22;71452;52.562;5.642;2024-03-02T15:46:25;13.90;53.70
81951;DHT22;71452;52.562;5.642;2024-03-02T15:48:54;13.90;54.00
81951;DHT22;71452;52.562;5.642;2024-03-02T15:51:23;13.90;54.00
81951;DHT22;71452;52.562;5.642;2024-03-02T15:53:55;13.90;54.20
81951;DHT22;71452;52.562;5.642;2024-03-02T15:56:24;13.90;54.40